createdAt,value
2022-12-03T00:00:12.150Z,50.10
2022-12-03T00:02:41.187Z,49.50
2022-12-03T00:05:10.073Z,48.10
2022-12-03T00:07:37.672Z,48.17
2022-12-03T00:10:06.249Z,47.78
2022-12-03T00:12:33.990Z,49.97
2022-12-03T00:15:01.469Z,48.67
2022-12-03T00:17:29.044Z,50.05
2022-12-03T00:19:56.614Z,51.83
2022-12-03T00:22:24.347Z,47.88
2022-12-03T00:24:52.194Z,48.80
2022-12-03T00:27:19.774Z,48.75
2022-12-03T00:29:47.428Z,47.72
2022-12-03T00:32:14.946Z,49.47
2022-12-03T00:34:42.471Z,50.60
2022-12-03T00:37:10.423Z,52.47
2022-12-03T00:39:37.952Z,51.85
2022-12-03T00:42:05.700Z,50.28
2022-12-03T00:44:33.192Z,51.38
2022-12-03T00:47:00.784Z,49.65
2022-12-03T00:49:28.359Z,49.00
2022-12-03T00:51:55.758Z,49.63
2022-12-03T00:54:26.998Z,48.00
2022-12-03T00:56:59.079Z,50.38
2022-12-03T00:59:26.816Z,51.47
2022-12-03T01:01:54.384Z,51.33
2022-12-03T01:04:22.037Z,52.33
2022-12-03T01:06:50.347Z,50.85
2022-12-03T01:09:17.913Z,52.40
2022-12-03T01:11:45.403Z,51.72
2022-12-03T01:14:16.828Z,50.42
2022-12-03T01:16:44.750Z,50.67
2022-12-03T01:19:16.653Z,50.67
2022-12-03T01:21:48.236Z,50.92
2022-12-03T01:24:15.977Z,49.22
2022-12-03T01:26:43.701Z,49.95
2022-12-03T01:29:11.191Z,50.38
2022-12-03T01:31:57.398Z,48.92
2022-12-03T01:34:24.882Z,51.03
2022-12-03T01:36:52.611Z,48.08
2022-12-03T01:39:20.485Z,50.05
2022-12-03T01:41:50.319Z,49.63
2022-12-03T01:44:28.178Z,52.30
2022-12-03T01:46:59.374Z,53.88
2022-12-03T01:49:31.459Z,55.65
2022-12-03T01:51:59.523Z,54.20
2022-12-03T01:54:38.218Z,63.08
2022-12-03T01:57:17.229Z,61.80
2022-12-03T01:59:45.572Z,189.88
2022-12-03T02:02:22.107Z,63.92
2022-12-03T02:04:50.054Z,60.88
2022-12-03T02:07:29.538Z,54.67
2022-12-03T02:09:59.505Z,53.63
2022-12-03T02:12:46.698Z,52.80
2022-12-03T02:15:14.512Z,54.05
2022-12-03T02:17:43.010Z,64.72
2022-12-03T02:20:12.490Z,56.25
2022-12-03T02:22:44.867Z,59.78
2022-12-03T02:25:22.329Z,55.55
2022-12-03T02:27:50.570Z,58.15
2022-12-03T02:30:21.070Z,60.72
2022-12-03T02:32:49.555Z,58.10
2022-12-03T02:35:23.359Z,58.67
2022-12-03T02:37:54.853Z,60.92
2022-12-03T02:40:27.384Z,61.38
2022-12-03T02:42:57.804Z,62.58
2022-12-03T02:45:36.177Z,60.70
2022-12-03T02:48:16.286Z,63.67
2022-12-03T02:50:49.006Z,64.78
2022-12-03T02:53:23.869Z,63.45
2022-12-03T02:55:52.590Z,64.82
2022-12-03T02:58:22.112Z,61.72
2022-12-03T03:00:51.773Z,63.05
2022-12-03T03:03:21.027Z,65.78
2022-12-03T03:05:49.609Z,65.85
2022-12-03T03:08:18.683Z,65.45
2022-12-03T03:10:47.640Z,68.95
2022-12-03T03:13:19.089Z,66.75
2022-12-03T03:15:46.683Z,67.45
2022-12-03T03:18:15.669Z,69.03
2022-12-03T03:20:43.988Z,65.53
2022-12-03T03:23:12.745Z,66.80
2022-12-03T03:25:43.664Z,67.72
2022-12-03T03:28:14.307Z,67.28
2022-12-03T03:30:43.870Z,65.50
2022-12-03T03:33:13.158Z,69.28
2022-12-03T03:35:41.182Z,66.55
2022-12-03T03:38:09.733Z,67.97
2022-12-03T03:40:38.425Z,66.85
2022-12-03T03:43:06.623Z,69.18
2022-12-03T03:45:34.163Z,65.43
2022-12-03T03:48:02.194Z,66.90
2022-12-03T03:50:31.630Z,66.15
2022-12-03T03:53:02.635Z,68.13
2022-12-03T03:55:31.500Z,63.63
2022-12-03T03:57:59.207Z,65.53
2022-12-03T04:00:27.282Z,68.18
2022-12-03T04:02:54.780Z,63.85
2022-12-03T04:05:24.151Z,69.60
2022-12-03T04:07:52.155Z,67.95
2022-12-03T04:10:38.271Z,68.50
2022-12-03T04:13:06.149Z,67.93
2022-12-03T04:15:33.777Z,68.13
2022-12-03T04:18:19.797Z,71.18
2022-12-03T04:20:47.263Z,65.78
2022-12-03T04:23:14.816Z,67.22
2022-12-03T04:26:11.787Z,67.05
2022-12-03T04:28:51.083Z,68.78
2022-12-03T04:31:44.707Z,67.70
2022-12-03T04:34:30.638Z,67.93
2022-12-03T04:36:58.187Z,68.45
2022-12-03T04:39:25.693Z,67.82
2022-12-03T04:41:53.162Z,70.05
2022-12-03T04:44:38.704Z,69.43
2022-12-03T04:47:18.045Z,66.13
2022-12-03T04:49:49.727Z,66.85
2022-12-03T04:52:19.051Z,66.63
2022-12-03T04:54:46.750Z,64.63
2022-12-03T04:57:14.337Z,67.75
2022-12-03T04:59:42.222Z,65.03
2022-12-03T05:02:09.927Z,65.40
2022-12-03T05:04:37.878Z,62.95
2022-12-03T05:07:05.347Z,64.18
2022-12-03T05:09:33.463Z,65.53
2022-12-03T05:12:01.095Z,65.00
2022-12-03T05:14:28.514Z,64.82
2022-12-03T05:16:56.123Z,64.45
2022-12-03T05:19:43.824Z,64.20
2022-12-03T05:22:11.301Z,63.30
2022-12-03T05:24:38.765Z,62.55
2022-12-03T05:27:06.264Z,61.08
2022-12-03T05:29:33.981Z,62.78
2022-12-03T05:32:01.474Z,65.30
2022-12-03T05:34:29.019Z,61.13
2022-12-03T05:36:56.558Z,62.85
2022-12-03T05:39:26.521Z,65.45
2022-12-03T05:42:12.651Z,65.28
2022-12-03T05:44:40.144Z,71.90
2022-12-03T05:47:07.883Z,62.50
2022-12-03T05:49:35.575Z,59.20
2022-12-03T05:52:03.212Z,61.20
2022-12-03T05:54:30.660Z,93.43
2022-12-03T05:56:58.192Z,62.28
2022-12-03T05:59:25.899Z,60.60
2022-12-03T06:01:53.412Z,59.72
2022-12-03T06:04:20.841Z,59.28
2022-12-03T06:06:48.357Z,63.30
2022-12-03T06:09:17.452Z,57.42
2022-12-03T06:11:44.970Z,57.08
2022-12-03T06:14:13.377Z,54.55
2022-12-03T06:16:40.991Z,55.13
2022-12-03T06:19:08.578Z,54.08
2022-12-03T06:21:36.159Z,56.35
2022-12-03T06:24:03.929Z,53.88
2022-12-03T06:26:31.399Z,57.13
2022-12-03T06:28:58.962Z,54.42
2022-12-03T06:31:26.588Z,53.38
2022-12-03T06:33:54.184Z,57.13
2022-12-03T06:36:23.412Z,58.83
2022-12-03T06:38:51.159Z,70.40
2022-12-03T06:41:18.739Z,64.22
2022-12-03T06:43:46.280Z,68.30
2022-12-03T06:46:13.853Z,61.70
2022-12-03T06:48:41.521Z,55.60
2022-12-03T06:51:09.102Z,58.15
2022-12-03T06:53:36.654Z,56.70
2022-12-03T06:56:04.286Z,55.28
2022-12-03T06:58:31.731Z,57.53
2022-12-03T07:00:59.508Z,55.53
2022-12-03T07:03:27.434Z,58.08
2022-12-03T07:05:55.673Z,55.30
2022-12-03T07:08:23.113Z,54.38
2022-12-03T07:10:50.697Z,53.30
2022-12-03T07:13:18.213Z,53.33
2022-12-03T07:15:47.501Z,55.70
2022-12-03T07:18:15.319Z,53.75
2022-12-03T07:20:43.564Z,55.53
2022-12-03T07:23:11.228Z,51.60
2022-12-03T07:25:38.861Z,50.90
2022-12-03T07:28:06.306Z,52.03
2022-12-03T07:30:33.910Z,54.08
2022-12-03T07:33:01.554Z,54.03
2022-12-03T07:35:29.039Z,56.85
2022-12-03T07:37:57.182Z,55.50
2022-12-03T07:40:24.674Z,53.13
2022-12-03T07:42:52.212Z,54.40
2022-12-03T07:45:20.116Z,53.95
2022-12-03T07:47:48.112Z,54.42
2022-12-03T07:50:15.689Z,54.67
2022-12-03T07:52:43.309Z,53.72
2022-12-03T07:55:12.725Z,52.20
2022-12-03T07:57:40.268Z,53.42
2022-12-03T08:00:10.776Z,56.08
2022-12-03T08:02:38.338Z,59.55
2022-12-03T08:05:06.290Z,60.75
2022-12-03T08:07:34.110Z,57.22
2022-12-03T08:10:01.747Z,58.67
2022-12-03T08:12:40.231Z,56.97
2022-12-03T08:15:20.230Z,55.83
2022-12-03T08:17:55.284Z,54.05
2022-12-03T08:20:28.876Z,53.50
2022-12-03T08:22:57.395Z,57.13
2022-12-03T08:25:32.759Z,54.53
2022-12-03T08:28:08.031Z,51.47
2022-12-03T08:30:35.541Z,54.45
2022-12-03T08:33:13.583Z,51.90
2022-12-03T08:35:44.466Z,50.00
2022-12-03T08:38:13.147Z,50.05
2022-12-03T08:40:43.463Z,52.38
2022-12-03T08:43:18.588Z,45.47
2022-12-03T08:45:46.839Z,55.95
2022-12-03T08:48:36.801Z,59.20
2022-12-03T08:51:25.470Z,45.58
2022-12-03T08:54:04.198Z,50.65
2022-12-03T08:56:36.045Z,51.67
2022-12-03T08:59:29.432Z,53.67
2022-12-03T09:01:58.768Z,53.97
2022-12-03T09:04:36.603Z,53.35
2022-12-03T09:07:04.988Z,62.35
2022-12-03T09:09:33.746Z,58.75
2022-12-03T09:12:03.313Z,54.13
2022-12-03T09:14:30.757Z,49.33
2022-12-03T09:16:58.233Z,50.30
2022-12-03T09:19:27.743Z,52.65
2022-12-03T09:21:55.228Z,51.17
2022-12-03T09:24:23.504Z,50.17
2022-12-03T09:26:51.113Z,50.58
2022-12-03T09:29:18.649Z,53.60
2022-12-03T09:31:46.267Z,56.08
2022-12-03T09:34:13.845Z,55.03
2022-12-03T09:36:41.427Z,49.13
2022-12-03T09:39:09.211Z,48.25
2022-12-03T09:41:36.879Z,50.38
2022-12-03T09:44:05.732Z,51.45
2022-12-03T09:46:36.138Z,55.78
2022-12-03T09:49:12.288Z,52.33
2022-12-03T09:51:41.689Z,55.10
2022-12-03T09:54:24.130Z,55.40
2022-12-03T09:56:52.905Z,54.88
2022-12-03T09:59:21.681Z,55.65
2022-12-03T10:01:49.631Z,54.72
2022-12-03T10:04:17.727Z,53.38
2022-12-03T10:06:46.259Z,52.97
2022-12-03T10:09:17.662Z,53.20
2022-12-03T10:11:45.546Z,56.72
2022-12-03T10:14:14.894Z,53.80
2022-12-03T10:16:42.883Z,50.85
2022-12-03T10:19:21.246Z,50.25
2022-12-03T10:21:48.954Z,49.50
2022-12-03T10:24:25.799Z,48.30
2022-12-03T10:27:14.357Z,45.58
2022-12-03T10:29:53.212Z,45.20
2022-12-03T10:32:26.767Z,44.17
2022-12-03T10:35:11.720Z,41.00
2022-12-03T10:40:34.563Z,45.55
2022-12-03T10:43:24.712Z,41.88
2022-12-03T10:46:04.046Z,40.15
2022-12-03T10:48:32.248Z,41.10
2022-12-03T10:51:04.884Z,39.65
2022-12-03T10:53:35.600Z,39.38
2022-12-03T10:56:06.454Z,37.92
2022-12-03T10:58:39.222Z,40.17
2022-12-03T11:01:15.872Z,33.55
2022-12-03T11:03:44.352Z,96.65
2022-12-03T11:06:18.038Z,36.17
2022-12-03T11:08:53.032Z,35.10
2022-12-03T11:11:26.651Z,35.17
2022-12-03T11:13:57.563Z,52.05
2022-12-03T11:16:45.266Z,35.35
2022-12-03T11:19:12.705Z,33.63
2022-12-03T11:22:04.958Z,36.00
2022-12-03T11:24:34.841Z,34.10
2022-12-03T11:27:02.351Z,38.78
2022-12-03T11:29:54.656Z,89.95
2022-12-03T11:32:48.102Z,31.05
2022-12-03T11:35:25.068Z,30.30
2022-12-03T11:37:52.815Z,43.50
2022-12-03T11:40:20.463Z,28.88
2022-12-03T11:42:48.924Z,29.08
2022-12-03T11:45:39.737Z,28.30
2022-12-03T11:48:13.459Z,27.60
2022-12-03T11:50:52.574Z,47.08
2022-12-03T11:53:23.747Z,32.03
2022-12-03T11:56:06.318Z,34.42
2022-12-03T11:58:36.161Z,36.05
2022-12-03T12:01:06.477Z,27.92
2022-12-03T12:03:37.958Z,27.55
2022-12-03T12:06:12.894Z,30.45
2022-12-03T12:09:00.183Z,39.53
2022-12-03T12:11:30.584Z,35.88
2022-12-03T12:14:02.626Z,28.83
2022-12-03T12:16:50.755Z,34.72
2022-12-03T12:19:38.213Z,42.00
2022-12-03T12:22:14.522Z,31.15
2022-12-03T12:24:47.044Z,30.65
2022-12-03T12:27:39.354Z,25.90
2022-12-03T12:30:14.265Z,32.22
2022-12-03T12:32:49.201Z,27.35
2022-12-03T12:35:21.188Z,27.50
2022-12-03T12:37:59.766Z,26.45
2022-12-03T12:40:34.031Z,50.05
2022-12-03T12:43:11.562Z,24.67
2022-12-03T12:45:42.968Z,29.00
2022-12-03T12:48:10.356Z,27.58
2022-12-03T12:50:38.581Z,25.77
2022-12-03T12:53:27.278Z,25.95
2022-12-03T12:56:00.470Z,26.10
2022-12-03T12:58:31.842Z,26.50
2022-12-03T13:01:04.352Z,25.73
2022-12-03T13:03:38.265Z,25.58
2022-12-03T13:06:06.190Z,26.90
2022-12-03T13:08:47.911Z,27.08
2022-12-03T13:11:24.538Z,26.05
2022-12-03T13:13:52.393Z,23.00
2022-12-03T13:16:28.222Z,28.60
2022-12-03T13:19:00.319Z,22.85
2022-12-03T13:21:42.967Z,28.33
2022-12-03T13:24:26.548Z,26.33
2022-12-03T13:26:55.413Z,25.52
2022-12-03T13:29:23.797Z,23.35
2022-12-03T13:32:09.903Z,23.40
2022-12-03T13:34:37.436Z,25.02
2022-12-03T13:37:14.082Z,28.58
2022-12-03T13:39:47.842Z,29.70
2022-12-03T13:42:38.651Z,28.03
2022-12-03T13:45:35.802Z,29.55
2022-12-03T13:48:18.743Z,28.73
2022-12-03T13:50:46.394Z,26.80
2022-12-03T13:53:34.072Z,29.73
2022-12-03T13:56:04.488Z,27.38
2022-12-03T13:58:31.963Z,28.55
2022-12-03T14:00:59.714Z,29.38
2022-12-03T14:03:27.279Z,31.90
2022-12-03T14:05:54.761Z,26.30
2022-12-03T14:08:22.325Z,29.30
2022-12-03T14:10:52.120Z,27.08
2022-12-03T14:13:21.698Z,28.02
2022-12-03T14:15:49.215Z,26.55
2022-12-03T14:18:17.027Z,30.00
2022-12-03T14:20:44.504Z,28.27
2022-12-03T14:23:12.097Z,26.05
2022-12-03T14:25:39.600Z,25.80
2022-12-03T14:28:09.878Z,27.17
2022-12-03T14:30:37.593Z,26.40
2022-12-03T14:33:05.046Z,26.88
2022-12-03T14:35:32.564Z,26.60
2022-12-03T14:38:21.120Z,26.98
2022-12-03T14:40:48.646Z,29.58
2022-12-03T14:43:16.239Z,34.50
2022-12-03T14:45:43.839Z,30.50
2022-12-03T14:48:11.484Z,29.73
2022-12-03T14:50:38.942Z,26.80
2022-12-03T14:53:06.568Z,24.55
2022-12-03T14:55:34.075Z,26.45
2022-12-03T14:58:01.810Z,27.42
2022-12-03T15:00:29.357Z,26.38
2022-12-03T15:02:56.943Z,25.23
2022-12-03T15:05:28.541Z,25.80
2022-12-03T15:07:56.636Z,24.73
2022-12-03T15:10:24.227Z,24.60
2022-12-03T15:12:51.682Z,28.83
2022-12-03T15:15:19.711Z,30.73
2022-12-03T15:17:47.327Z,26.25
2022-12-03T15:20:14.926Z,29.38
2022-12-03T15:22:43.368Z,26.65
2022-12-03T15:25:11.124Z,37.25
2022-12-03T15:27:38.594Z,26.60
2022-12-03T15:30:06.958Z,27.30
2022-12-03T15:32:34.441Z,29.17
2022-12-03T15:35:02.089Z,28.05
2022-12-03T15:37:29.737Z,28.85
2022-12-03T15:39:57.463Z,30.05
2022-12-03T15:42:25.100Z,31.00
2022-12-03T15:44:52.594Z,27.77
2022-12-03T15:47:20.055Z,27.88
2022-12-03T15:49:48.863Z,30.20
2022-12-03T15:52:16.670Z,30.55
2022-12-03T15:54:44.362Z,30.42
2022-12-03T15:57:12.054Z,28.45
2022-12-03T15:59:39.557Z,30.63
2022-12-03T16:02:07.152Z,31.85
2022-12-03T16:04:35.992Z,31.90
2022-12-03T16:07:03.801Z,29.98
2022-12-03T16:09:33.630Z,30.52
2022-12-03T16:12:01.594Z,30.23
2022-12-03T16:14:29.080Z,30.52
2022-12-03T16:16:58.862Z,31.48
2022-12-03T16:19:26.509Z,29.77
2022-12-03T16:21:54.069Z,30.48
2022-12-03T16:24:23.634Z,29.73
2022-12-03T16:26:52.049Z,30.23
2022-12-03T16:29:19.707Z,30.17
2022-12-03T16:31:47.610Z,30.83
2022-12-03T16:34:15.495Z,29.13
2022-12-03T16:36:46.094Z,29.55
2022-12-03T16:39:14.043Z,29.90
2022-12-03T16:41:41.510Z,30.95
2022-12-03T16:44:19.751Z,29.30
2022-12-03T16:46:48.209Z,30.58
2022-12-03T16:49:16.170Z,30.77
2022-12-03T16:51:43.907Z,30.75
2022-12-03T16:54:11.765Z,31.48
2022-12-03T16:56:39.213Z,32.58
2022-12-03T16:59:06.755Z,31.75
2022-12-03T17:01:34.272Z,31.67
2022-12-03T17:04:01.833Z,30.67
2022-12-03T17:06:29.362Z,31.55
2022-12-03T17:08:56.825Z,32.63
2022-12-03T17:11:24.406Z,32.20
2022-12-03T17:13:51.878Z,31.60
2022-12-03T17:16:19.400Z,32.90
2022-12-03T17:18:48.194Z,33.40
2022-12-03T17:21:15.791Z,33.35
2022-12-03T17:23:44.755Z,34.38
2022-12-03T17:26:14.903Z,35.33
2022-12-03T17:28:42.420Z,33.83
2022-12-03T17:31:10.250Z,33.63
2022-12-03T17:33:38.300Z,34.30
2022-12-03T17:36:07.845Z,34.63
2022-12-03T17:38:39.325Z,38.47
2022-12-03T17:41:07.525Z,35.47
2022-12-03T17:43:34.985Z,40.53
2022-12-03T17:46:02.814Z,36.72
2022-12-03T17:48:31.409Z,36.45
2022-12-03T17:50:59.483Z,40.15
2022-12-03T17:53:27.665Z,37.65
2022-12-03T17:55:55.155Z,39.15
2022-12-03T17:58:23.832Z,40.58
2022-12-03T18:00:51.424Z,42.42
2022-12-03T18:03:18.889Z,42.15
2022-12-03T18:05:46.625Z,40.47
2022-12-03T18:08:15.069Z,43.90
2022-12-03T18:10:43.287Z,43.35
2022-12-03T18:13:11.073Z,45.80
2022-12-03T18:15:38.571Z,45.47
2022-12-03T18:18:06.158Z,49.00
2022-12-03T18:20:33.839Z,46.17
2022-12-03T18:23:01.846Z,47.40
2022-12-03T18:25:30.038Z,47.80
2022-12-03T18:27:57.629Z,58.75
2022-12-03T18:30:25.748Z,50.63
2022-12-03T18:32:53.399Z,47.92
2022-12-03T18:35:21.119Z,56.92
2022-12-03T18:37:50.230Z,53.38
2022-12-03T18:40:22.548Z,52.25
2022-12-03T18:42:50.778Z,48.85
2022-12-03T18:45:19.890Z,51.20
2022-12-03T18:47:50.657Z,54.47
2022-12-03T18:50:18.408Z,51.35
2022-12-03T18:52:48.053Z,52.55
2022-12-03T18:55:19.971Z,47.88
2022-12-03T18:57:47.592Z,48.97
2022-12-03T19:00:17.828Z,48.40
2022-12-03T19:03:02.516Z,46.47
2022-12-03T19:05:32.783Z,46.80
2022-12-03T19:08:01.975Z,47.38
2022-12-03T19:10:29.641Z,48.10
2022-12-03T19:12:57.549Z,50.10
2022-12-03T19:15:25.259Z,48.95
2022-12-03T19:17:53.523Z,49.13
2022-12-03T19:20:26.267Z,48.22
2022-12-03T19:22:53.957Z,48.67
2022-12-03T19:25:21.830Z,49.05
2022-12-03T19:27:50.797Z,49.38
2022-12-03T19:30:18.597Z,48.10
2022-12-03T19:32:46.503Z,47.65
2022-12-03T19:35:16.186Z,49.85
2022-12-03T19:37:46.352Z,52.20
2022-12-03T19:40:15.079Z,50.38
2022-12-03T19:42:43.262Z,49.85
2022-12-03T19:45:11.313Z,50.92
2022-12-03T19:47:41.965Z,50.55
2022-12-03T19:50:10.455Z,49.92
2022-12-03T19:52:38.272Z,53.05
2022-12-03T19:55:06.548Z,56.75
2022-12-03T19:57:34.425Z,67.40
2022-12-03T20:00:02.296Z,53.05
2022-12-03T20:02:40.709Z,51.70
2022-12-03T20:05:08.723Z,69.45
2022-12-03T20:07:36.507Z,48.65
2022-12-03T20:10:05.114Z,58.35
2022-12-03T20:12:33.053Z,52.45
2022-12-03T20:15:01.047Z,52.03
2022-12-03T20:17:28.763Z,49.97
2022-12-03T20:19:56.869Z,52.90
2022-12-03T20:22:24.882Z,50.17
2022-12-03T20:24:52.608Z,48.95
2022-12-03T20:27:22.952Z,48.38
2022-12-03T20:29:51.151Z,48.80
2022-12-03T20:32:19.294Z,49.03
2022-12-03T20:34:49.615Z,48.85
2022-12-03T20:37:17.861Z,49.83
2022-12-03T20:39:45.765Z,46.30
2022-12-03T20:42:16.119Z,48.97
2022-12-03T20:44:43.753Z,49.97
2022-12-03T20:47:11.469Z,47.53
2022-12-03T20:49:40.207Z,44.47
2022-12-03T20:52:07.646Z,49.00
2022-12-03T20:54:35.363Z,48.42
2022-12-03T20:57:04.017Z,46.00
2022-12-03T20:59:32.931Z,52.15
2022-12-03T21:02:00.831Z,48.55
2022-12-03T21:04:28.515Z,51.92
2022-12-03T21:06:56.182Z,51.05
2022-12-03T21:09:23.958Z,52.72
2022-12-03T21:11:51.709Z,49.63
2022-12-03T21:14:19.321Z,51.03
2022-12-03T21:19:37.804Z,50.03
2022-12-03T21:22:05.778Z,50.95
2022-12-03T21:24:34.396Z,48.88
2022-12-03T21:27:02.055Z,49.13
2022-12-03T21:29:29.737Z,50.55
2022-12-03T21:31:57.567Z,47.90
2022-12-03T21:34:25.446Z,51.90
2022-12-03T21:36:52.894Z,52.92
2022-12-03T21:39:20.661Z,52.13
2022-12-03T21:42:34.023Z,51.50
2022-12-03T21:44:36.106Z,50.63
2022-12-03T21:47:10.721Z,53.22
2022-12-03T21:49:41.709Z,53.50
2022-12-03T21:52:09.777Z,52.10
2022-12-03T21:54:37.569Z,51.53
2022-12-03T21:57:05.266Z,49.83
2022-12-03T21:59:32.800Z,50.15
2022-12-03T22:02:00.432Z,50.22
2022-12-03T22:04:30.005Z,50.00
2022-12-03T22:06:57.492Z,49.60
2022-12-03T22:09:26.926Z,50.15
2022-12-03T22:11:56.920Z,50.13
2022-12-03T22:14:24.853Z,49.55
2022-12-03T22:16:52.446Z,49.85
2022-12-03T22:19:23.451Z,50.92
2022-12-03T22:21:51.308Z,52.10
2022-12-03T22:24:19.522Z,53.90
2022-12-03T22:26:47.592Z,50.97
2022-12-03T22:29:15.441Z,52.15
2022-12-03T22:31:43.003Z,50.38
2022-12-03T22:34:10.504Z,53.28
2022-12-03T22:36:38.045Z,52.13
2022-12-03T22:39:05.533Z,55.55
2022-12-03T22:41:33.494Z,55.33
2022-12-03T22:44:01.000Z,56.80
2022-12-03T22:46:28.492Z,58.72
2022-12-03T22:48:55.995Z,57.45
2022-12-03T22:51:25.753Z,54.45
2022-12-03T22:53:57.796Z,57.55
2022-12-03T22:56:26.466Z,56.95
2022-12-03T22:58:54.917Z,55.35
2022-12-03T23:01:28.953Z,54.95
2022-12-03T23:03:57.165Z,54.10
2022-12-03T23:06:24.752Z,53.58
2022-12-03T23:08:52.607Z,52.45
2022-12-03T23:11:20.813Z,51.28
2022-12-03T23:13:48.521Z,49.72
2022-12-03T23:16:19.649Z,50.20
2022-12-03T23:18:47.225Z,47.17
2022-12-03T23:21:24.028Z,49.72
2022-12-03T23:23:56.357Z,49.22
2022-12-03T23:26:23.962Z,51.20
2022-12-03T23:28:51.606Z,52.10
2022-12-03T23:31:23.202Z,50.60
2022-12-03T23:33:52.219Z,51.88
2022-12-03T23:36:21.227Z,53.53
2022-12-03T23:38:48.840Z,50.53
2022-12-03T23:41:20.088Z,51.35
2022-12-03T23:43:47.797Z,51.47
2022-12-03T23:46:19.831Z,51.72
2022-12-03T23:48:47.610Z,48.83
2022-12-03T23:51:18.365Z,48.58
2022-12-03T23:53:46.448Z,49.65
2022-12-03T23:56:17.657Z,49.25
2022-12-03T23:58:45.916Z,48.00
